Time,TemperatureF,DewpointF,PressureIn,WindDirection,WindDirectionDegrees,WindSpeedMPH,WindSpeedGustMPH,Humidity,HourlyPrecipIn,Conditions,Clouds,dailyrainin,SoftwareType,DateUTC
2014-01-04 00:13:00,42.6,36.9,29.90,ESE,112,0.0,-999.0,80,-99.99,,,0.00,Acu-Link.com,2014-01-04 08:13:00,
2014-01-04 00:28:00,43.3,38.5,29.90,ESE,112,0.0,-999.0,83,-99.99,,,0.00,Acu-Link.com,2014-01-04 08:28:00,
2014-01-04 00:43:00,43.3,38.2,29.91,ESE,112,0.0,-999.0,82,-99.99,,,0.00,Acu-Link.com,2014-01-04 08:43:00,
2014-01-04 00:59:00,43.2,38.7,29.92,ESE,112,1.7,-999.0,84,-99.99,,,0.00,Acu-Link.com,2014-01-04 08:59:00,
2014-01-04 01:14:00,43.2,38.7,29.91,NNW,337,1.1,-999.0,84,-99.99,,,0.00,Acu-Link.com,2014-01-04 09:14:00,
2014-01-04 01:29:00,42.3,38.4,29.91,NNW,337,0.0,-999.0,86,-99.99,,,0.00,Acu-Link.com,2014-01-04 09:29:00,
2014-01-04 01:45:00,42.1,38.8,29.91,NNW,337,1.1,-999.0,88,-99.99,,,0.00,Acu-Link.com,2014-01-04 09:45:00,
2014-01-04 02:00:00,41.7,38.4,29.91,NNW,337,0.0,-999.0,88,-99.99,,,0.00,Acu-Link.com,2014-01-04 10:00:00,
2014-01-04 02:15:00,41.5,39.1,29.90,NNW,337,1.7,-999.0,91,-99.99,,,0.00,Acu-Link.com,2014-01-04 10:15:00,
2014-01-04 02:31:00,42.1,40.2,29.90,NNW,337,0.0,-999.0,93,-99.99,,,0.00,Acu-Link.com,2014-01-04 10:31:00,
2014-01-04 02:46:00,41.9,39.5,29.91,NNW,337,0.0,-999.0,91,-99.99,,,0.00,Acu-Link.com,2014-01-04 10:46:00,
2014-01-04 03:01:00,43.2,40.5,29.91,NNW,337,0.0,-999.0,90,-99.99,,,0.00,Acu-Link.com,2014-01-04 11:01:00,
2014-01-04 03:17:00,41.4,38.7,29.92,NNW,337,0.0,-999.0,90,-99.99,,,0.00,Acu-Link.com,2014-01-04 11:17:00,
2014-01-04 03:32:00,40.6,38.5,29.92,NNW,337,0.0,-999.0,92,-99.99,,,0.00,Acu-Link.com,2014-01-04 11:32:00,
2014-01-04 03:47:00,40.8,38.9,29.91,NNW,337,0.0,-999.0,93,-99.99,,,0.00,Acu-Link.com,2014-01-04 11:47:00,
2014-01-04 04:02:00,40.3,38.2,29.92,NNW,337,0.0,-999.0,92,-99.99,,,0.00,Acu-Link.com,2014-01-04 12:02:00,
2014-01-04 04:17:00,39.2,37.3,29.91,NNW,337,0.0,-999.0,93,-99.99,,,0.00,Acu-Link.com,2014-01-04 12:17:00,
2014-01-04 04:33:00,39.0,38.0,29.92,NNW,337,0.0,-999.0,96,-99.99,,,0.00,Acu-Link.com,2014-01-04 12:33:00,
2014-01-04 04:48:00,39.2,38.4,29.91,NNW,337,2.2,-999.0,97,-99.99,,,0.00,Acu-Link.com,2014-01-04 12:48:00,
2014-01-04 05:03:00,39.6,39.1,29.91,NNW,337,0.0,-999.0,98,-99.99,,,0.00,Acu-Link.com,2014-01-04 13:03:00,
2014-01-04 05:19:00,39.9,39.6,29.90,NNW,337,2.2,-999.0,99,-99.99,,,0.00,Acu-Link.com,2014-01-04 13:19:00,
2014-01-04 05:34:00,39.6,39.3,29.91,NNW,337,0.0,-999.0,99,-99.99,,,0.00,Acu-Link.com,2014-01-04 13:34:00,
2014-01-04 05:49:00,39.7,39.2,29.92,NNW,337,0.0,-999.0,98,-99.99,,,0.00,Acu-Link.com,2014-01-04 13:49:00,
2014-01-04 06:04:00,40.3,39.8,29.91,NNW,337,1.7,-999.0,98,-99.99,,,0.00,Acu-Link.com,2014-01-04 14:04:00,
2014-01-04 06:20:00,39.0,38.5,29.92,NNW,337,1.7,-999.0,98,-99.99,,,0.00,Acu-Link.com,2014-01-04 14:20:00,
2014-01-04 06:35:00,39.0,38.7,29.92,NNW,337,0.0,-999.0,99,-99.99,,,0.00,Acu-Link.com,2014-01-04 14:35:00,
2014-01-04 06:50:00,39.0,38.5,29.93,NNW,337,0.0,-999.0,98,-99.99,,,0.00,Acu-Link.com,2014-01-04 14:50:00,
2014-01-04 07:05:00,38.5,38.0,29.92,NNW,337,0.0,-999.0,98,-99.99,,,0.00,Acu-Link.com,2014-01-04 15:05:00,
2014-01-04 07:21:00,38.5,38.0,29.94,NNW,337,0.0,-999.0,98,-99.99,,,0.00,Acu-Link.com,2014-01-04 15:21:00,
2014-01-04 07:36:00,38.1,37.8,29.93,NNW,337,0.0,-999.0,99,-99.99,,,0.00,Acu-Link.com,2014-01-04 15:36:00,
2014-01-04 07:51:00,37.6,37.1,29.94,NNW,337,0.0,-999.0,98,-99.99,,,0.00,Acu-Link.com,2014-01-04 15:51:00,
2014-01-04 08:07:00,38.3,38.0,29.95,NNW,337,1.7,-999.0,99,-99.99,,,0.00,Acu-Link.com,2014-01-04 16:07:00,
2014-01-04 08:22:00,39.4,38.6,29.96,NNW,337,0.0,-999.0,97,-99.99,,,0.00,Acu-Link.com,2014-01-04 16:22:00,
2014-01-04 08:37:00,41.0,40.2,29.95,NNW,337,0.0,-999.0,97,-99.99,,,0.00,Acu-Link.com,2014-01-04 16:37:00,
2014-01-04 08:52:00,42.6,39.9,29.96,NNW,337,0.0,-999.0,90,-99.99,,,0.00,Acu-Link.com,2014-01-04 16:52:00,
2014-01-04 09:08:00,45.9,43.4,29.97,West,270,2.2,-999.0,91,-99.99,,,0.00,Acu-Link.com,2014-01-04 17:08:00,
2014-01-04 09:23:00,50.7,47.6,29.96,West,270,0.0,-999.0,89,-99.99,,,0.00,Acu-Link.com,2014-01-04 17:23:00,
2014-01-04 09:39:00,53.1,48.4,29.97,NE,45,0.0,-999.0,84,-99.99,,,0.00,Acu-Link.com,2014-01-04 17:39:00,
2014-01-04 09:54:00,56.1,49.7,29.98,NE,45,1.7,-999.0,79,-99.99,,,0.00,Acu-Link.com,2014-01-04 17:54:00,
2014-01-04 10:09:00,55.4,49.0,29.98,NE,45,0.0,-999.0,79,-99.99,,,0.00,Acu-Link.com,2014-01-04 18:09:00,
2014-01-04 10:25:00,56.5,49.0,29.99,NW,315,2.2,-999.0,76,-99.99,,,0.00,Acu-Link.com,2014-01-04 18:25:00,
2014-01-04 10:40:00,56.7,49.6,29.98,NE,45,2.7,-999.0,77,-99.99,,,0.00,Acu-Link.com,2014-01-04 18:40:00,
2014-01-04 10:55:00,58.1,49.5,29.98,NE,45,1.7,-999.0,73,-99.99,,,0.00,Acu-Link.com,2014-01-04 18:55:00,
2014-01-04 11:10:00,59.5,48.9,29.97,ENE,67,1.1,-999.0,68,-99.99,,,0.00,Acu-Link.com,2014-01-04 19:10:00,
2014-01-04 11:25:00,62.8,50.0,29.96,SSE,157,1.7,-999.0,63,-99.99,,,0.00,Acu-Link.com,2014-01-04 19:25:00,
2014-01-04 11:41:00,63.9,48.8,29.96,NE,45,1.7,-999.0,58,-99.99,,,0.00,Acu-Link.com,2014-01-04 19:41:00,
2014-01-04 11:56:00,65.7,49.1,29.95,NE,45,3.2,-999.0,55,-99.99,,,0.00,Acu-Link.com,2014-01-04 19:56:00,
2014-01-04 12:12:00,64.4,47.4,29.96,NE,45,3.2,-999.0,54,-99.99,,,0.00,Acu-Link.com,2014-01-04 20:12:00,
2014-01-04 12:31:00,64.8,45.7,29.95,SE,135,3.2,-999.0,50,-99.99,,,0.00,Acu-Link.com,2014-01-04 20:31:00,
2014-01-04 12:46:00,66.7,44.1,29.93,SE,135,1.7,-999.0,44,-99.99,,,0.00,Acu-Link.com,2014-01-04 20:46:00,
2014-01-04 13:01:00,67.6,43.7,29.93,West,270,2.7,-999.0,42,-99.99,,,0.00,Acu-Link.com,2014-01-04 21:01:00,
2014-01-04 13:17:00,66.4,43.2,29.93,ENE,67,1.1,-999.0,43,-99.99,,,0.00,Acu-Link.com,2014-01-04 21:17:00,
2014-01-04 13:32:00,67.6,42.4,29.93,ENE,67,1.7,-999.0,40,-99.99,,,0.00,Acu-Link.com,2014-01-04 21:32:00,
2014-01-04 13:47:00,66.7,41.6,29.93,NE,45,1.7,-999.0,40,-99.99,,,0.00,Acu-Link.com,2014-01-04 21:47:00,
2014-01-04 14:02:00,66.9,41.1,29.93,NE,45,1.7,-999.0,39,-99.99,,,0.00,Acu-Link.com,2014-01-04 22:02:00,
2014-01-04 14:18:00,67.3,40.8,29.92,SE,135,2.7,-999.0,38,-99.99,,,0.00,Acu-Link.com,2014-01-04 22:18:00,
2014-01-04 14:33:00,67.6,41.1,29.92,SSE,157,1.1,-999.0,38,-99.99,,,0.00,Acu-Link.com,2014-01-04 22:33:00,
2014-01-04 14:48:00,67.8,41.3,29.93,ENE,67,3.2,-999.0,38,-99.99,,,0.00,Acu-Link.com,2014-01-04 22:48:00,
2014-01-04 15:04:00,67.5,40.3,29.92,NNE,22,2.2,-999.0,37,-99.99,,,0.00,Acu-Link.com,2014-01-04 23:04:00,
2014-01-04 15:19:00,67.5,38.9,29.92,SE,135,1.1,-999.0,35,-99.99,,,0.00,Acu-Link.com,2014-01-04 23:19:00,
2014-01-04 15:34:00,67.8,39.9,29.92,SE,135,0.0,-999.0,36,-99.99,,,0.00,Acu-Link.com,2014-01-04 23:34:00,
2014-01-04 15:49:00,66.9,39.1,29.92,SSE,157,2.2,-999.0,36,-99.99,,,0.00,Acu-Link.com,2014-01-04 23:49:00,
2014-01-04 16:05:00,66.2,38.5,29.92,SE,135,0.0,-999.0,36,-99.99,,,0.00,Acu-Link.com,2014-01-05 00:05:00,
2014-01-04 16:35:00,66.0,39.0,29.93,SE,135,0.0,-999.0,37,-99.99,,,0.00,Acu-Link.com,2014-01-05 00:35:00,
2014-01-04 16:50:00,63.1,39.0,29.93,SE,135,0.0,-999.0,41,-99.99,,,0.00,Acu-Link.com,2014-01-05 00:50:00,
2014-01-04 17:06:00,60.4,38.4,29.94,SE,135,0.0,-999.0,44,-99.99,,,0.00,Acu-Link.com,2014-01-05 01:06:00,
2014-01-04 17:21:00,57.6,38.6,29.94,SE,135,1.1,-999.0,49,-99.99,,,0.00,Acu-Link.com,2014-01-05 01:21:00,
2014-01-04 17:36:00,55.4,39.0,29.94,SE,135,2.2,-999.0,54,-99.99,,,0.00,Acu-Link.com,2014-01-05 01:36:00,
2014-01-04 17:52:00,53.4,38.6,29.94,SE,135,0.0,-999.0,57,-99.99,,,0.00,Acu-Link.com,2014-01-05 01:52:00,
2014-01-04 18:07:00,51.4,38.4,29.94,SE,135,1.7,-999.0,61,-99.99,,,0.00,Acu-Link.com,2014-01-05 02:07:00,
2014-01-04 18:22:00,50.0,38.3,29.94,SE,135,0.0,-999.0,64,-99.99,,,0.00,Acu-Link.com,2014-01-05 02:22:00,
2014-01-04 18:38:00,48.6,38.5,29.95,SE,135,2.2,-999.0,68,-99.99,,,0.00,Acu-Link.com,2014-01-05 02:38:00,
2014-01-04 18:53:00,48.6,37.0,29.95,SE,135,2.7,-999.0,64,-99.99,,,0.00,Acu-Link.com,2014-01-05 02:53:00,
2014-01-04 19:08:00,48.4,36.4,29.96,SE,135,2.2,-999.0,63,-99.99,,,0.00,Acu-Link.com,2014-01-05 03:08:00,
2014-01-04 19:23:00,47.7,35.7,29.95,SE,135,1.7,-999.0,63,-99.99,,,0.00,Acu-Link.com,2014-01-05 03:23:00,
2014-01-04 19:38:00,47.1,34.8,29.97,SE,135,2.2,-999.0,62,-99.99,,,0.00,Acu-Link.com,2014-01-05 03:38:00,
2014-01-04 19:54:00,46.8,33.7,29.96,SE,135,1.1,-999.0,60,-99.99,,,0.00,Acu-Link.com,2014-01-05 03:54:00,
2014-01-04 20:09:00,45.9,32.8,29.98,SE,135,2.7,-999.0,60,-99.99,,,0.00,Acu-Link.com,2014-01-05 04:09:00,
2014-01-04 20:24:00,45.3,31.8,29.97,SE,135,0.0,-999.0,59,-99.99,,,0.00,Acu-Link.com,2014-01-05 04:24:00,
2014-01-04 20:39:00,45.0,30.3,29.97,SE,135,2.7,-999.0,56,-99.99,,,0.00,Acu-Link.com,2014-01-05 04:39:00,
2014-01-04 20:55:00,44.8,30.1,29.97,SE,135,0.0,-999.0,56,-99.99,,,0.00,Acu-Link.com,2014-01-05 04:55:00,
2014-01-04 21:10:00,43.9,31.3,29.98,SE,135,0.0,-999.0,61,-99.99,,,0.00,Acu-Link.com,2014-01-05 05:10:00,
2014-01-04 21:25:00,43.5,29.7,29.98,SE,135,0.0,-999.0,58,-99.99,,,0.00,Acu-Link.com,2014-01-05 05:25:00,
2014-01-04 21:41:00,43.2,29.9,29.98,SE,135,1.7,-999.0,59,-99.99,,,0.00,Acu-Link.com,2014-01-05 05:41:00,
2014-01-04 21:56:00,43.2,28.6,29.99,SE,135,2.2,-999.0,56,-99.99,,,0.00,Acu-Link.com,2014-01-05 05:56:00,
2014-01-04 22:11:00,43.7,26.8,30.00,SE,135,2.2,-999.0,51,-99.99,,,0.00,Acu-Link.com,2014-01-05 06:11:00,
2014-01-04 22:26:00,43.3,26.9,30.00,SE,135,0.0,-999.0,52,-99.99,,,0.00,Acu-Link.com,2014-01-05 06:26:00,
2014-01-04 22:42:00,43.2,26.8,30.01,SSE,157,1.7,-999.0,52,-99.99,,,0.00,Acu-Link.com,2014-01-05 06:42:00,
2014-01-04 22:57:00,42.3,27.7,30.01,SE,135,1.7,-999.0,56,-99.99,,,0.00,Acu-Link.com,2014-01-05 06:57:00,
2014-01-04 23:12:00,42.4,26.5,30.01,SE,135,1.1,-999.0,53,-99.99,,,0.00,Acu-Link.com,2014-01-05 07:12:00,
2014-01-04 23:28:00,41.4,26.5,30.01,SE,135,0.0,-999.0,55,-99.99,,,0.00,Acu-Link.com,2014-01-05 07:28:00,
2014-01-04 23:43:00,41.5,25.2,30.01,SE,135,0.0,-999.0,52,-99.99,,,0.00,Acu-Link.com,2014-01-05 07:43:00,
2014-01-04 23:58:00,42.3,25.0,30.01,SE,135,2.2,-999.0,50,-99.99,,,0.00,Acu-Link.com,2014-01-05 07:58:00,